Time;durP1;ratioP1;P1;durP2;ratioP2;P2;SDS_P1;SDS_P2;PMS_P1;PMS_P2;Temp;Humidity;BMP_temperature;BMP_pressure;BME280_temperature;BME280_humidity;BME280_pressure;Samples;Min_cycle;Max_cycle;Signal;HPM_P1;HPM_P2
2022/04/09 00:00:07;;;;;;;1.67;1.10;;;;;;;;;;5036733;28;20029;-78
2022/04/09 00:02:33;;;;;;;4.38;1.83;;;;;;;;;;5036728;28;20045;-78
2022/04/09 00:04:59;;;;;;;2.72;1.45;;;;;;;;;;5041050;28;20104;-79
2022/04/09 00:07:25;;;;;;;2.50;1.27;;;;;;;;;;5039755;28;20657;-79
2022/04/09 00:09:51;;;;;;;0.57;0.40;;;;;;;;;;5040682;28;20044;-78
2022/04/09 00:12:17;;;;;;;0.80;0.80;;;;;;;;;;5035584;28;20028;-78
2022/04/09 00:14:43;;;;;;;0.30;0.30;;;;;;;;;;5047600;28;20044;-79
2022/04/09 00:17:09;;;;;;;0.38;0.38;;;;;;;;;;5042759;28;20096;-78
2022/04/09 00:19:36;;;;;;;0.50;0.50;;;;;;;;;;5041850;28;20220;-78
2022/04/09 00:22:03;;;;;;;0.10;0.10;;;;;;;;;;5043754;28;20021;-79
2022/04/09 00:24:28;;;;;;;0.30;0.30;;;;;;;;;;5038057;28;20032;-79
2022/04/09 00:26:54;;;;;;;0.40;0.40;;;;;;;;;;5045351;28;20116;-78
2022/04/09 00:29:20;;;;;;;0.20;0.20;;;;;;;;;;5041326;28;20030;-79
2022/04/09 00:31:46;;;;;;;0.20;0.20;;;;;;;;;;5042993;28;20033;-78
2022/04/09 00:34:12;;;;;;;0.20;0.20;;;;;;;;;;5047971;28;20447;-78
2022/04/09 00:36:38;;;;;;;0.20;0.20;;;;;;;;;;5049128;28;20077;-79
2022/04/09 00:39:04;;;;;;;0.90;0.28;;;;;;;;;;5044279;28;20044;-79
2022/04/09 00:41:30;;;;;;;0.43;0.32;;;;;;;;;;5040850;28;20528;-78
2022/04/09 00:43:56;;;;;;;1.25;0.28;;;;;;;;;;5033334;28;20048;-78
2022/04/09 00:46:22;;;;;;;0.20;0.20;;;;;;;;;;5039652;28;20094;-78
2022/04/09 00:48:48;;;;;;;0.60;0.50;;;;;;;;;;5041153;28;20056;-78
2022/04/09 00:51:15;;;;;;;1.35;0.73;;;;;;;;;;5044312;28;20410;-78
2022/04/09 00:53:43;;;;;;;1.23;0.45;;;;;;;;;;5036909;28;20037;-78
2022/04/09 00:56:20;;;;;;;2.45;1.05;;;;;;;;;;5040258;28;20492;-78
2022/04/09 00:58:55;;;;;;;3.38;1.83;;;;;;;;;;5035677;28;20528;-77
2022/04/09 01:01:22;;;;;;;4.25;1.50;;;;;;;;;;5040287;28;20112;-78
2022/04/09 01:03:48;;;;;;;4.00;0.80;;;;;;;;;;5036629;28;20033;-78
2022/04/09 01:06:14;;;;;;;0.40;0.40;;;;;;;;;;5041835;28;20033;-78
2022/04/09 01:08:40;;;;;;;0.82;0.60;;;;;;;;;;5037348;28;20026;-77
2022/04/09 01:11:06;;;;;;;0.47;0.47;;;;;;;;;;5041524;28;20405;-79
2022/04/09 01:13:32;;;;;;;0.98;0.60;;;;;;;;;;5034383;28;20055;-77
2022/04/09 01:15:58;;;;;;;0.38;0.38;;;;;;;;;;5036609;28;20458;-77
2022/04/09 01:18:24;;;;;;;0.35;0.35;;;;;;;;;;5036150;28;20033;-78
2022/04/09 01:20:50;;;;;;;1.05;0.40;;;;;;;;;;5034947;28;20055;-77
2022/04/09 01:23:16;;;;;;;0.38;0.38;;;;;;;;;;5043394;28;20072;-77
2022/04/09 01:25:42;;;;;;;0.20;0.20;;;;;;;;;;5037946;28;20123;-79
2022/04/09 01:28:08;;;;;;;0.88;0.40;;;;;;;;;;5042072;28;20104;-78
2022/04/09 01:30:34;;;;;;;0.82;0.47;;;;;;;;;;5038363;28;20111;-77
2022/04/09 01:33:00;;;;;;;0.40;0.40;;;;;;;;;;5035837;28;20025;-77
2022/04/09 01:35:26;;;;;;;0.85;0.40;;;;;;;;;;5036639;28;20091;-78
2022/04/09 01:37:52;;;;;;;0.75;0.32;;;;;;;;;;5027734;28;20031;-77
2022/04/09 01:40:18;;;;;;;0.30;0.30;;;;;;;;;;5039144;28;20034;-78
2022/04/09 01:42:44;;;;;;;1.83;0.68;;;;;;;;;;5034254;28;20041;-78
2022/04/09 01:45:10;;;;;;;0.65;0.30;;;;;;;;;;5034397;28;20026;-77
2022/04/09 01:47:41;;;;;;;1.25;0.47;;;;;;;;;;5042527;28;20030;-77
2022/04/09 01:50:08;;;;;;;0.93;0.40;;;;;;;;;;5038738;28;20034;-77
2022/04/09 01:52:34;;;;;;;0.30;0.30;;;;;;;;;;5043809;28;20029;-77
2022/04/09 01:55:00;;;;;;;0.75;0.55;;;;;;;;;;5042228;28;20017;-78
2022/04/09 01:57:26;;;;;;;0.70;0.55;;;;;;;;;;5037636;28;20490;-78
2022/04/09 01:59:52;;;;;;;0.10;0.10;;;;;;;;;;5037857;28;20025;-78
2022/04/09 02:02:18;;;;;;;0.70;0.60;;;;;;;;;;5037962;28;20114;-77
2022/04/09 02:04:44;;;;;;;0.30;0.30;;;;;;;;;;5039211;28;20021;-79
2022/04/09 02:07:10;;;;;;;0.40;0.40;;;;;;;;;;5043870;28;20024;-77
2022/04/09 02:09:36;;;;;;;0.32;0.32;;;;;;;;;;5040588;28;20037;-76
2022/04/09 02:12:02;;;;;;;1.10;0.80;;;;;;;;;;5032325;28;20994;-78
2022/04/09 02:14:28;;;;;;;0.30;0.30;;;;;;;;;;5038576;28;20592;-77
2022/04/09 02:16:54;;;;;;;1.15;0.40;;;;;;;;;;5029561;28;20393;-77
2022/04/09 02:19:20;;;;;;;0.40;0.40;;;;;;;;;;5037131;28;20017;-77
2022/04/09 02:21:46;;;;;;;0.50;0.40;;;;;;;;;;5034154;28;20021;-78
2022/04/09 02:24:12;;;;;;;0.88;0.52;;;;;;;;;;5036863;28;20040;-78
2022/04/09 02:26:38;;;;;;;0.85;0.55;;;;;;;;;;5034839;28;20029;-78
2022/04/09 02:29:04;;;;;;;6.90;0.73;;;;;;;;;;5034929;28;20524;-76
2022/04/09 02:31:30;;;;;;;1.63;0.55;;;;;;;;;;5034191;28;20509;-77
2022/04/09 02:33:56;;;;;;;1.63;0.90;;;;;;;;;;5036229;28;20052;-77
2022/04/09 02:36:23;;;;;;;1.50;0.60;;;;;;;;;;5035151;28;20025;-77
2022/04/09 02:38:49;;;;;;;1.23;0.82;;;;;;;;;;5031630;28;20033;-76
2022/04/09 02:41:15;;;;;;;1.15;0.75;;;;;;;;;;5033409;28;20384;-77
2022/04/09 02:43:43;;;;;;;2.47;0.95;;;;;;;;;;5039416;28;20033;-77
2022/04/09 02:46:09;;;;;;;2.40;1.00;;;;;;;;;;5035667;28;20040;-77
2022/04/09 02:48:35;;;;;;;2.00;1.23;;;;;;;;;;5037098;28;20025;-78
2022/04/09 02:51:01;;;;;;;1.83;0.75;;;;;;;;;;5038661;28;20254;-77
2022/04/09 02:53:27;;;;;;;2.60;0.98;;;;;;;;;;5045349;28;20026;-77
2022/04/09 02:55:54;;;;;;;2.80;1.52;;;;;;;;;;5043102;28;20048;-77
2022/04/09 02:58:20;;;;;;;4.68;2.45;;;;;;;;;;5039995;28;20398;-78
2022/04/09 03:00:46;;;;;;;3.90;1.98;;;;;;;;;;5033662;28;20469;-77
2022/04/09 03:03:12;;;;;;;3.72;1.88;;;;;;;;;;5038636;28;20037;-77
2022/04/09 03:05:38;;;;;;;4.50;2.30;;;;;;;;;;5040902;28;20028;-77
2022/04/09 03:08:04;;;;;;;2.97;1.52;;;;;;;;;;5036859;28;20136;-77
2022/04/09 03:10:30;;;;;;;4.07;2.10;;;;;;;;;;5042887;28;20036;-77
2022/04/09 03:12:56;;;;;;;2.95;1.35;;;;;;;;;;5038403;28;20033;-77
2022/04/09 03:15:22;;;;;;;3.92;2.05;;;;;;;;;;5035718;28;20021;-77
2022/04/09 03:17:48;;;;;;;3.42;1.92;;;;;;;;;;5038302;28;20497;-77
2022/04/09 03:20:14;;;;;;;5.00;1.67;;;;;;;;;;5036601;28;20033;-77
2022/04/09 03:22:49;;;;;;;3.97;1.85;;;2.70;99.90;;;;;;5038607;28;20037;-76
2022/04/09 03:25:16;;;;;;;3.45;2.08;;;;;;;;;;5035142;28;20040;-77
2022/04/09 03:27:42;;;;;;;2.97;1.52;;;;;;;;;;5040273;28;20037;-76
2022/04/09 03:30:09;;;;;;;4.28;2.67;;;;;;;;;;5035139;28;20029;-76
2022/04/09 03:32:36;;;;;;;4.13;2.85;;;;;;;;;;5034665;28;20025;-76
2022/04/09 03:35:02;;;;;;;5.00;2.58;;;;;;;;;;5034456;28;20029;-76
2022/04/09 03:37:28;;;;;;;4.15;2.22;;;;;;;;;;5034784;28;20037;-79
2022/04/09 03:39:54;;;;;;;4.75;1.95;;;;;;;;;;5031797;28;20376;-77
2022/04/09 03:42:20;;;;;;;5.43;2.20;;;;;;;;;;5038908;28;20553;-75
2022/04/09 03:44:46;;;;;;;3.65;1.98;;;;;;;;;;5040631;28;20116;-76
2022/04/09 03:47:12;;;;;;;4.50;2.67;;;;;;;;;;5031503;28;20033;-77
2022/04/09 03:49:38;;;;;;;3.83;1.90;;;;;;;;;;5040587;28;20028;-78
2022/04/09 03:52:04;;;;;;;4.25;2.42;;;;;;;;;;5041679;28;20062;-78
2022/04/09 03:54:32;;;;;;;5.78;2.72;;;;;;;;;;5035661;28;20033;-78
2022/04/09 03:56:58;;;;;;;7.00;2.63;;;;;;;;;;5039466;28;20039;-77
2022/04/09 03:59:24;;;;;;;3.10;2.20;;;;;;;;;;5031658;28;20116;-78
2022/04/09 04:01:50;;;;;;;5.13;3.20;;;;;;;;;;5035148;28;20515;-77
2022/04/09 04:04:16;;;;;;;5.20;2.60;;;;;;;;;;5039041;28;20138;-77
2022/04/09 04:06:42;;;;;;;8.68;2.25;;;;;;;;;;5043049;28;21068;-76
2022/04/09 04:09:09;;;;;;;8.32;3.47;;;;;;;;;;5038988;28;20029;-77
2022/04/09 04:11:34;;;;;;;7.13;3.92;;;;;;;;;;5036490;28;20029;-77
2022/04/09 04:14:01;;;;;;;5.65;3.05;;;;;;;;;;5036071;28;20029;-77
2022/04/09 04:16:26;;;;;;;7.07;3.63;;;;;;;;;;5041876;28;20116;-77
2022/04/09 04:18:52;;;;;;;6.72;3.40;;;;;;;;;;5034207;28;20120;-77
2022/04/09 04:21:19;;;;;;;7.70;3.83;;;;;;;;;;5036336;28;20017;-76
2022/04/09 04:23:45;;;;;;;7.78;3.25;;;;;;;;;;5037177;28;20132;-77
2022/04/09 04:26:11;;;;;;;10.18;4.05;;;;;;;;;;5037004;28;20018;-77
2022/04/09 04:28:37;;;;;;;7.22;3.95;;;;;;;;;;5039859;28;20923;-77
2022/04/09 04:31:04;;;;;;;7.15;4.07;;;;;;;;;;5037324;28;20029;-77
2022/04/09 04:33:32;;;;;;;11.05;4.60;;;;;;;;;;5036811;28;20029;-77
2022/04/09 04:35:58;;;;;;;6.50;4.15;;;;;;;;;;5035698;28;20036;-76
2022/04/09 04:38:24;;;;;;;9.18;4.80;;;;;;;;;;5032959;28;20091;-77
2022/04/09 04:40:51;;;;;;;7.75;4.30;;;;;;;;;;5037113;28;20025;-77
2022/04/09 04:43:17;;;;;;;9.02;5.03;;;;;;;;;;5035120;28;20048;-77
2022/04/09 04:45:43;;;;;;;14.48;4.40;;;;;;;;;;5031127;28;20048;-77
2022/04/09 04:48:09;;;;;;;7.57;3.85;;;;;;;;;;5036365;28;20052;-77
2022/04/09 04:50:37;;;;;;;7.43;4.07;;;;;;;;;;5036336;28;20106;-77
2022/04/09 04:53:03;;;;;;;11.23;5.38;;;;;;;;;;5036515;28;20033;-76
2022/04/09 04:55:29;;;;;;;8.45;5.07;;;;;;;;;;5039592;28;20025;-77
2022/04/09 04:57:55;;;;;;;11.43;4.75;;;;;;;;;;5037831;28;20037;-77
2022/04/09 05:00:25;;;;;;;6.90;4.15;;;;;;;;;;5039584;28;20079;-76
2022/04/09 05:02:51;;;;;;;7.65;4.28;;;;;;;;;;5031581;28;20045;-76
2022/04/09 05:05:17;;;;;;;8.73;4.88;;;;;;;;;;5036344;28;20061;-76
2022/04/09 05:07:45;;;;;;;8.90;4.50;;;;;;;;;;5032915;28;20250;-76
2022/04/09 05:10:12;;;;;;;18.65;5.47;;;;;;;;;;5038779;28;20021;-77
2022/04/09 05:12:38;;;;;;;10.77;5.72;;;;;;;;;;5034330;28;20033;-77
2022/04/09 05:15:04;;;;;;;8.43;4.32;;;;;;;;;;5030680;28;20159;-76
2022/04/09 05:17:30;;;;;;;11.52;4.93;;;;;;;;;;5031853;28;20066;-77
2022/04/09 05:19:56;;;;;;;9.30;5.18;;;;;;;;;;5024772;28;20033;-77
2022/04/09 05:22:22;;;;;;;9.85;4.93;;;;;;;;;;5037448;28;20040;-76
2022/04/09 05:24:49;;;;;;;12.45;5.03;;;;;;;;;;5038496;28;20030;-77
2022/04/09 05:27:15;;;;;;;15.40;7.40;;;;;;;;;;5028279;28;20036;-77
2022/04/09 05:29:41;;;;;;;12.40;6.07;;;;;;;;;;5031880;28;20034;-77
2022/04/09 05:32:07;;;;;;;8.90;4.88;;;;;;;;;;5034789;28;20025;-76
2022/04/09 05:34:33;;;;;;;8.82;4.35;;;;;;;;;;5032246;28;20039;-76
2022/04/09 05:36:59;;;;;;;9.00;3.90;;;;;;;;;;5034541;28;20037;-77
2022/04/09 05:39:25;;;;;;;9.15;5.28;;;;;;;;;;5038074;28;20056;-77
2022/04/09 05:41:51;;;;;;;10.05;4.93;;;;;;;;;;5033802;28;20087;-77
2022/04/09 05:44:17;;;;;;;8.40;3.50;;;;;;;;;;5032942;28;20044;-77
2022/04/09 05:46:43;;;;;;;6.95;4.55;;;;;;;;;;5036698;28;20670;-77
2022/04/09 05:49:09;;;;;;;7.45;4.20;;;;;;;;;;5038678;28;20429;-76
2022/04/09 05:51:36;;;;;;;10.15;5.20;;;;;;;;;;5034066;28;20472;-76
2022/04/09 05:54:02;;;;;;;9.77;4.25;;;;;;;;;;5040136;28;20032;-77
2022/04/09 05:56:28;;;;;;;11.68;5.57;;;;;;;;;;5035985;28;20152;-77
2022/04/09 05:58:54;;;;;;;6.38;3.30;;;;;;;;;;5046543;28;20540;-77
2022/04/09 06:01:20;;;;;;;12.35;5.70;;;;;;;;;;5031250;28;20417;-78
2022/04/09 06:03:46;;;;;;;8.80;4.00;;;;;;;;;;5032331;28;20111;-77
2022/04/09 06:06:12;;;;;;;8.38;4.25;;;;;;;;;;5034228;28;20108;-76
2022/04/09 06:08:38;;;;;;;8.15;4.20;;;;;;;;;;5039624;28;20067;-77
2022/04/09 06:11:05;;;;;;;9.43;4.25;;;;;;;;;;5037069;28;20520;-76
2022/04/09 06:13:31;;;;;;;11.63;4.30;;;;;;;;;;5037597;28;20511;-76
2022/04/09 06:15:57;;;;;;;10.60;4.07;;;;;;;;;;5030892;28;20104;-77
2022/04/09 06:18:23;;;;;;;9.82;5.10;;;;;;;;;;5046172;28;20128;-76
2022/04/09 06:20:49;;;;;;;9.07;4.60;;;;;;;;;;5033971;28;20260;-77
2022/04/09 06:23:15;;;;;;;9.20;3.63;;;;;;;;;;5035576;28;20286;-76
2022/04/09 06:25:41;;;;;;;11.20;3.45;;;;;;;;;;5033511;28;20039;-76
2022/04/09 06:28:08;;;;;;;7.43;4.22;;;;;;;;;;5029384;28;20107;-76
2022/04/09 06:30:34;;;;;;;7.47;2.72;;;;;;;;;;5034751;28;20029;-77
2022/04/09 06:33:00;;;;;;;6.00;2.97;;;;;;;;;;5027045;28;20076;-77
2022/04/09 06:35:27;;;;;;;7.75;4.38;;;;;;;;;;5032086;28;20025;-77
2022/04/09 06:37:53;;;;;;;5.57;3.30;;;;;;;;;;5027706;28;20033;-77
2022/04/09 06:40:19;;;;;;;8.20;2.83;;;;;;;;;;5040664;28;20025;-78
2022/04/09 06:42:44;;;;;;;7.40;3.55;;;;;;;;;;5036760;28;20150;-76
2022/04/09 06:45:11;;;;;;;8.55;3.42;;;;;;;;;;5037347;28;20125;-77
2022/04/09 06:47:38;;;;;;;14.15;3.72;;;;;;;;;;5033594;28;20041;-77
2022/04/09 06:50:11;;;;;;;10.73;4.30;;;;;;;;;;5040299;28;20033;-77
2022/04/09 06:52:37;;;;;;;6.40;3.53;;;;;;;;;;5030436;28;20121;-77
2022/04/09 06:55:06;;;;;;;5.40;3.30;;;;;;;;;;5034995;28;20034;-77
2022/04/09 06:57:32;;;;;;;5.45;2.65;;;;;;;;;;5034692;28;20082;-77
2022/04/09 07:00:03;;;;;;;5.47;2.67;;;;;;;;;;5035868;28;20718;-77
2022/04/09 07:02:29;;;;;;;4.13;2.45;;;;;;;;;;5032184;28;20041;-77
2022/04/09 07:04:55;;;;;;;7.03;2.88;;;;;;;;;;5031870;28;20410;-77
2022/04/09 07:07:25;;;;;;;4.75;2.45;;;;;;;;;;5027607;28;20018;-77
2022/04/09 07:09:51;;;;;;;6.18;2.25;;;;;;;;;;5034369;28;20610;-77
2022/04/09 07:12:17;;;;;;;4.25;2.60;;;;;;;;;;5025756;28;20025;-76
2022/04/09 07:14:43;;;;;;;5.78;2.55;;;5.60;99.90;;;;;;5033195;28;20025;-77
2022/04/09 07:17:09;;;;;;;3.13;2.13;;;;;;;;;;5030251;28;20379;-77
2022/04/09 07:19:35;;;;;;;3.63;1.95;;;;;;;;;;5036286;28;20024;-77
2022/04/09 07:22:01;;;;;;;4.25;2.10;;;;;;;;;;5033930;28;20538;-77
2022/04/09 07:24:27;;;;;;;7.68;2.33;;;;;;;;;;5025967;28;20041;-78
2022/04/09 07:26:53;;;;;;;3.65;2.03;;;;;;;;;;5029668;28;20898;-77
2022/04/09 07:29:19;;;;;;;9.20;1.88;;;;;;;;;;5026605;28;20029;-77
2022/04/09 07:31:46;;;;;;;5.25;2.65;;;5.70;99.90;;;;;;5026065;28;20494;-77
2022/04/09 07:34:11;;;;;;;4.72;1.73;;;;;;;;;;5034144;28;20117;-77
2022/04/09 07:36:38;;;;;;;7.13;2.25;;;;;;;;;;5038279;28;20107;-77
2022/04/09 07:39:04;;;;;;;3.38;1.70;;;;;;;;;;5037174;28;20057;-77
2022/04/09 07:41:30;;;;;;;8.82;2.45;;;;;;;;;;5036544;28;20029;-76
2022/04/09 07:43:56;;;;;;;4.28;2.60;;;;;;;;;;5039752;28;20036;-77
2022/04/09 07:46:22;;;;;;;3.80;2.10;;;;;;;;;;5031941;28;20030;-78
2022/04/09 07:48:48;;;;;;;4.15;2.50;;;;;;;;;;5037789;28;20068;-78
2022/04/09 07:51:14;;;;;;;7.85;2.25;;;;;;;;;;5035430;28;20029;-78
2022/04/09 07:53:40;;;;;;;5.15;2.05;;;;;;;;;;5039293;28;20324;-77
2022/04/09 07:56:06;;;;;;;5.47;2.88;;;;;;;;;;5043210;28;20093;-77
2022/04/09 07:58:32;;;;;;;6.85;4.28;;;;;;;;;;5041029;28;20129;-77
2022/04/09 08:00:58;;;;;;;8.82;4.90;;;;;;;;;;5039923;28;20025;-77
2022/04/09 08:03:24;;;;;;;16.48;3.70;;;;;;;;;;5040365;28;20053;-78
2022/04/09 08:05:50;;;;;;;22.00;9.25;;;;;;;;;;5041569;28;20029;-77
2022/04/09 08:08:16;;;;;;;10.77;3.75;;;;;;;;;;5030014;28;20070;-77
2022/04/09 08:10:42;;;;;;;7.57;1.95;;;;;;;;;;5031802;28;20883;-77
2022/04/09 08:13:08;;;;;;;5.03;2.67;;;;;;;;;;5032514;28;20029;-78
2022/04/09 08:15:34;;;;;;;4.85;2.95;;;;;;;;;;5023297;28;20112;-78
2022/04/09 08:18:03;;;;;;;3.83;2.13;;;;;;;;;;5031913;28;20087;-77
2022/04/09 08:20:30;;;;;;;5.43;2.47;;;;;;;;;;5032900;28;20083;-77
2022/04/09 08:22:56;;;;;;;4.43;2.35;;;;;;;;;;5033117;28;20424;-77
2022/04/09 08:25:21;;;;;;;9.13;4.28;;;;;;;;;;5035561;28;20029;-77
2022/04/09 08:27:52;;;;;;;6.53;2.75;;;;;;;;;;5024235;28;20064;-77
2022/04/09 08:30:18;;;;;;;5.72;2.55;;;;;;;;;;5030968;28;20033;-78
2022/04/09 08:32:44;;;;;;;6.70;3.90;;;;;;;;;;5047484;28;20101;-78
2022/04/09 08:35:10;;;;;;;6.90;2.63;;;;;;;;;;5037729;28;20029;-78
2022/04/09 08:37:36;;;;;;;6.80;3.83;;;;;;;;;;5038952;28;20025;-77
2022/04/09 08:40:03;;;;;;;4.05;2.33;;;;;;;;;;5048094;28;20028;-78
2022/04/09 08:42:29;;;;;;;5.85;2.55;;;;;;;;;;5044529;28;20029;-78
2022/04/09 08:44:55;;;;;;;7.20;2.30;;;;;;;;;;5045836;28;20056;-78
2022/04/09 08:47:23;;;;;;;7.90;2.53;;;;;;;;;;5038992;28;20030;-79
2022/04/09 08:49:49;;;;;;;13.52;2.95;;;;;;;;;;5041112;28;20385;-78
2022/04/09 08:52:16;;;;;;;4.85;1.77;;;;;;;;;;5036330;28;20033;-78
2022/04/09 08:54:42;;;;;;;5.55;2.40;;;;;;;;;;5047355;28;20703;-78
2022/04/09 08:57:08;;;;;;;6.07;2.25;;;;;;;;;;5031145;28;20041;-78
2022/04/09 08:59:34;;;;;;;5.72;2.28;;;;;;;;;;5045759;28;20025;-78
2022/04/09 09:02:00;;;;;;;4.90;2.55;;;;;;;;;;5039968;28;20645;-78
2022/04/09 09:04:26;;;;;;;7.47;2.97;;;;;;;;;;5034532;28;20858;-78
2022/04/09 09:06:52;;;;;;;4.47;2.15;;;10.00;99.90;;;;;;5044668;28;20044;-79
2022/04/09 09:09:25;;;;;;;3.85;1.25;;;;;;;;;;5042082;28;20025;-79
2022/04/09 09:11:51;;;;;;;6.50;1.50;;;;;;;;;;5045555;28;20025;-78
2022/04/09 09:14:34;;;;;;;3.97;1.63;;;;;;;;;;5041790;28;20405;-78
2022/04/09 09:17:00;;;;;;;3.88;1.33;;;;;;;;;;5038947;28;20474;-78
2022/04/09 09:19:43;;;;;;;3.20;1.42;;;;;;;;;;5047456;28;20112;-78
2022/04/09 09:22:09;;;;;;;4.67;1.43;;;;;;;;;;5040636;28;20496;-78
2022/04/09 09:24:35;;;;;;;1.25;0.98;;;;;;;;;;5038944;28;20310;-79
2022/04/09 09:27:02;;;;;;;8.30;1.73;;;;;;;;;;5043521;28;20080;-79
2022/04/09 09:29:29;;;;;;;2.63;1.33;;;;;;;;;;5049306;28;20049;-79
2022/04/09 09:31:56;;;;;;;5.53;1.88;;;;;;;;;;5052807;28;20092;-80
2022/04/09 09:34:22;;;;;;;5.45;1.30;;;;;;;;;;5042459;28;20025;-80
2022/04/09 09:36:49;;;;;;;6.18;1.33;;;;;;;;;;5039255;28;20080;-80
2022/04/09 09:39:16;;;;;;;2.97;1.20;;;;;;;;;;5048846;28;20033;-79
2022/04/09 09:41:49;;;;;;;3.05;1.35;;;;;;;;;;5048733;28;20033;-80
2022/04/09 09:44:16;;;;;;;;;;;;;;;;;;5043860;28;20045;-81
2022/04/09 09:46:43;;;;;;;3.38;1.05;;;;;;;;;;5050808;28;19912;-80
2022/04/09 09:49:09;;;;;;;3.78;1.98;;;;;;;;;;5048519;28;20264;-80
2022/04/09 09:51:35;;;;;;;6.57;1.50;;;;;;;;;;5043103;28;20132;-79
2022/04/09 09:54:09;;;;;;;5.70;1.30;;;;;;;;;;5036950;28;20052;-81
2022/04/09 09:56:41;;;;;;;3.80;1.38;;;;;;;;;;5047134;28;20035;-80
2022/04/09 09:59:07;;;;;;;5.32;1.48;;;;;;;;;;5041878;28;20461;-80
2022/04/09 10:01:36;;;;;;;9.50;1.40;;;;;;;;;;5041799;28;20428;-80
2022/04/09 10:04:04;;;;;;;5.35;1.83;;;8.30;99.90;;;;;;5029432;28;20056;-80
2022/04/09 10:06:31;;;;;;;5.05;1.48;;;;;;;;;;5061293;28;20032;-80
2022/04/09 10:08:58;;;;;;;3.20;1.73;;;;;;;;;;5038356;28;20032;-81
2022/04/09 10:11:24;;;;;;;3.53;2.20;;;;;;;;;;5050618;28;20120;-81
2022/04/09 10:13:54;;;;;;;4.13;1.73;;;8.90;99.90;;;;;;5034229;28;20032;-81
2022/04/09 10:16:21;;;;;;;6.38;1.20;;;;;;;;;;5036129;28;20024;-79
2022/04/09 10:18:48;;;;;;;2.42;1.15;;;;;;;;;;5040551;28;20046;-82
2022/04/09 10:21:15;;;;;;;5.57;1.45;;;;;;;;;;5042209;28;20036;-81
2022/04/09 10:23:41;;;;;;;4.40;1.35;;;;;;;;;;5034769;28;20037;-80
2022/04/09 10:26:07;;;;;;;3.05;0.70;;;;;;;;;;5039895;28;20541;-81
2022/04/09 10:28:36;;;;;;;2.90;0.88;;;;;;;;;;5047579;28;20552;-83
2022/04/09 10:31:03;;;;;;;3.05;1.63;;;;;;;;;;5043920;28;20033;-80
2022/04/09 10:33:33;;;;;;;2.00;0.98;;;9.50;99.90;;;;;;5050289;28;20036;-82
2022/04/09 10:36:03;;;;;;;8.50;0.88;;;;;;;;;;5045287;28;20022;-81
2022/04/09 10:38:29;;;;;;;3.42;1.25;;;;;;;;;;5043242;28;20036;-80
2022/04/09 10:40:55;;;;;;;3.05;0.73;;;;;;;;;;5039054;28;20029;-80
2022/04/09 10:43:24;;;;;;;4.20;1.95;;;;;;;;;;5041032;28;20041;-81
2022/04/09 10:46:06;;;;;;;1.67;1.10;;;;;;;;;;5043760;28;20067;-80
2022/04/09 10:48:33;;;;;;;5.88;0.90;;;;;;;;;;5046351;28;20034;-80
2022/04/09 10:51:04;;;;;;;5.05;1.40;;;;;;;;;;5038816;28;20024;-81
2022/04/09 10:53:34;;;;;;;4.35;1.02;;;;;;;;;;5046222;28;20080;-80
2022/04/09 10:56:25;;;;;;;4.13;1.00;;;;;;;;;;5038360;28;20047;-81
2022/04/09 10:59:06;;;;;;;6.93;1.30;;;9.50;99.90;;;;;;5044039;28;20033;-82
2022/04/09 11:01:47;;;;;;;6.18;1.63;;;;;;;;;;5043213;28;20058;-83
2022/04/09 11:04:32;;;;;;;4.80;0.90;;;;;;;;;;5044122;28;20037;-81
2022/04/09 11:07:05;;;;;;;6.30;0.95;;;;;;;;;;5050947;28;20057;-81
2022/04/09 11:09:54;;;;;;;1.25;0.82;;;;;;;;;;5043800;28;20031;-81
2022/04/09 11:12:21;;;;;;;1.15;0.50;;;;;;;;;;5034869;28;20052;-81
2022/04/09 11:14:50;;;;;;;1.23;0.43;;;;;;;;;;5043219;28;20022;-82
2022/04/09 11:17:16;;;;;;;5.20;1.13;;;;;;;;;;5044881;28;20083;-79
2022/04/09 11:19:42;;;;;;;3.47;1.20;;;;;;;;;;5050013;28;20029;-81
2022/04/09 11:22:09;;;;;;;4.18;1.65;;;;;;;;;;5047768;28;20440;-79
2022/04/09 11:24:41;;;;;;;10.25;3.22;;;;;;;;;;5050414;28;20481;-81
2022/04/09 11:27:07;;;;;;;2.30;1.10;;;;;;;;;;5049284;28;20061;-81
2022/04/09 11:29:37;;;;;;;10.95;2.35;;;;;;;;;;5040976;28;20049;-80
2022/04/09 11:32:04;;;;;;;6.97;2.33;;;;;;;;;;5043913;28;20021;-80
2022/04/09 11:34:59;;;;;;;0.68;0.55;;;;;;;;;;5050428;28;20029;-82
2022/04/09 11:37:33;;;;;;;2.70;0.85;;;;;;;;;;5043243;28;20029;-80
2022/04/09 11:40:05;;;;;;;3.60;1.08;;;10.10;99.90;;;;;;5052689;28;20094;-82
2022/04/09 11:42:47;;;;;;;9.82;1.63;;;;;;;;;;5044482;28;20026;-81
2022/04/09 11:45:23;;;;;;;1.40;0.80;;;;;;;;;;5040458;28;20040;-81
2022/04/09 11:47:50;;;;;;;2.88;0.93;;;9.60;99.90;;;;;;5048806;28;20030;-80
2022/04/09 11:50:17;;;;;;;1.67;0.77;;;;;;;;;;5038992;28;20029;-82
2022/04/09 11:52:43;;;;;;;2.60;0.90;;;;;;;;;;5035881;28;20041;-81
2022/04/09 11:55:13;;;;;;;5.07;2.10;;;;;;;;;;5042287;28;20024;-82
2022/04/09 11:57:39;;;;;;;8.57;1.80;;;;;;;;;;5044053;28;20028;-82
2022/04/09 12:00:06;;;;;;;3.30;0.95;;;;;;;;;;5042740;28;20108;-81
2022/04/09 12:02:34;;;;;;;11.20;1.08;;;;;;;;;;5043165;28;20540;-81
2022/04/09 12:05:00;;;;;;;0.93;0.57;;;;;;;;;;5046419;28;20040;-80
2022/04/09 12:07:28;;;;;;;4.45;1.08;;;;;;;;;;5040844;28;20025;-80
2022/04/09 12:09:54;;;;;;;5.78;1.00;;;;;;;;;;5052417;28;20037;-81
2022/04/09 12:12:20;;;;;;;0.68;0.47;;;;;;;;;;5038945;28;20107;-80
2022/04/09 12:14:53;;;;;;;2.47;0.70;;;;;;;;;;5046895;28;20029;-81
2022/04/09 12:17:22;;;;;;;4.47;0.80;;;;;;;;;;5032590;28;20033;-83
2022/04/09 12:19:48;;;;;;;1.35;0.47;;;;;;;;;;5035158;28;20061;-81
2022/04/09 12:22:22;;;;;;;0.60;0.43;;;;;;;;;;5041632;28;20036;-82
2022/04/09 12:24:52;;;;;;;0.73;0.38;;;;;;;;;;5029546;28;20541;-82
2022/04/09 12:27:19;;;;;;;3.90;0.70;;;;;;;;;;5022834;28;20029;-80
2022/04/09 12:29:51;;;;;;;2.47;0.65;;;;;;;;;;5029397;28;20021;-80
2022/04/09 12:32:24;;;;;;;1.60;0.30;;;;;;;;;;5035110;28;20142;-81
2022/04/09 12:34:52;;;;;;;1.40;0.63;;;;;;;;;;5041789;28;20333;-81
2022/04/09 12:37:19;;;;;;;5.63;1.42;;;;;;;;;;5038536;28;20056;-80
2022/04/09 12:39:45;;;;;;;2.53;0.60;;;;;;;;;;5036683;28;20108;-81
2022/04/09 12:42:11;;;;;;;5.45;0.95;;;;;;;;;;5033050;28;20017;-80
2022/04/09 12:44:38;;;;;;;1.83;0.77;;;;;;;;;;5037179;28;20041;-82
2022/04/09 12:47:05;;;;;;;2.92;1.10;;;;;;;;;;5039274;28;20033;-80
2022/04/09 12:49:34;;;;;;;5.05;0.30;;;;;;;;;;5045723;28;20025;-81
2022/04/09 12:52:00;;;;;;;5.05;2.22;;;;;;;;;;5036506;28;20474;-82
2022/04/09 12:54:30;;;;;;;3.05;1.05;;;;;;;;;;5047703;28;20033;-81
2022/04/09 12:56:57;;;;;;;3.95;0.73;;;;;;;;;;5036576;28;20029;-81
2022/04/09 12:59:23;;;;;;;4.07;0.43;;;;;;;;;;5035136;28;20094;-80
2022/04/09 13:01:50;;;;;;;4.07;1.55;;;;;;;;;;5039963;28;20385;-81
2022/04/09 13:04:17;;;;;;;5.55;0.80;;;;;;;;;;5038786;28;20045;-81
2022/04/09 13:06:43;;;;;;;5.07;0.80;;;;;;;;;;5049475;28;20116;-81
2022/04/09 13:09:09;;;;;;;8.48;1.23;;;;;;;;;;5043039;28;20453;-80
2022/04/09 13:11:35;;;;;;;4.90;0.93;;;;;;;;;;5041472;28;20029;-81
2022/04/09 13:14:01;;;;;;;3.20;0.82;;;;;;;;;;5040422;28;20144;-79
2022/04/09 13:16:27;;;;;;;5.97;0.47;;;;;;;;;;5036410;28;20029;-80
2022/04/09 13:18:53;;;;;;;6.30;0.98;;;;;;;;;;5040533;28;20115;-81
2022/04/09 13:21:19;;;;;;;1.20;0.80;;;;;;;;;;5041398;28;20048;-80
2022/04/09 13:23:45;;;;;;;0.55;0.30;;;;;;;;;;5041409;28;20082;-81
2022/04/09 13:26:11;;;;;;;3.58;0.98;;;;;;;;;;5043519;28;20053;-82
2022/04/09 13:28:37;;;;;;;5.07;1.38;;;;;;;;;;5041936;28;20040;-81
2022/04/09 13:31:03;;;;;;;3.15;0.50;;;;;;;;;;5037916;28;20029;-81
2022/04/09 13:33:29;;;;;;;5.32;0.80;;;;;;;;;;5038517;28;20040;-81
2022/04/09 13:35:55;;;;;;;2.20;0.80;;;;;;;;;;5040577;28;20021;-81
2022/04/09 13:38:22;;;;;;;1.83;0.55;;;;;;;;;;5039789;28;20036;-81
2022/04/09 13:40:48;;;;;;;4.18;1.13;;;;;;;;;;5038088;28;20021;-81
2022/04/09 13:43:15;;;;;;;2.92;0.65;;;;;;;;;;5036320;28;20041;-81
2022/04/09 13:45:42;;;;;;;0.55;0.43;;;;;;;;;;5034983;28;20033;-81
2022/04/09 13:48:08;;;;;;;1.95;0.57;;;;;;;;;;5041626;28;20039;-82
2022/04/09 13:50:35;;;;;;;6.93;1.00;;;;;;;;;;5040112;28;20368;-81
2022/04/09 13:53:01;;;;;;;2.92;0.80;;;;;;;;;;5047874;28;20032;-82
2022/04/09 13:55:27;;;;;;;3.10;0.57;;;;;;;;;;5039392;28;20056;-81
2022/04/09 13:57:53;;;;;;;3.90;0.57;;;;;;;;;;5042392;28;20044;-82
2022/04/09 14:00:19;;;;;;;6.93;1.73;;;;;;;;;;5042265;28;20029;-84
2022/04/09 14:02:46;;;;;;;3.80;1.52;;;;;;;;;;5044073;28;20110;-82
2022/04/09 14:05:12;;;;;;;2.70;1.08;;;;;;;;;;5037326;28;20370;-82
2022/04/09 14:07:39;;;;;;;3.90;0.82;;;;;;;;;;5041305;28;20756;-81
2022/04/09 14:10:05;;;;;;;9.27;2.80;;;;;;;;;;5046918;28;20695;-81
2022/04/09 14:12:31;;;;;;;8.75;1.25;;;;;;;;;;5046518;28;20133;-81
2022/04/09 14:14:57;;;;;;;9.40;3.90;;;;;;;;;;5039536;28;20025;-81
2022/04/09 14:17:23;;;;;;;1.05;0.65;;;;;;;;;;5033559;28;20608;-82
2022/04/09 14:19:49;;;;;;;4.60;1.73;;;;;;;;;;5043469;28;20014;-82
2022/04/09 14:22:15;;;;;;;1.35;0.65;;;;;;;;;;5035331;28;20033;-82
2022/04/09 14:24:41;;;;;;;1.30;0.60;;;;;;;;;;5041162;28;20049;-82
2022/04/09 14:27:07;;;;;;;0.57;0.30;;;;;;;;;;5035364;28;20032;-81
2022/04/09 14:29:34;;;;;;;2.83;1.27;;;;;;;;;;5042379;28;20450;-81
2022/04/09 14:32:00;;;;;;;2.50;0.70;;;;;;;;;;5038090;28;20021;-82
2022/04/09 14:34:26;;;;;;;1.75;0.60;;;;;;;;;;5046719;28;20433;-81
2022/04/09 14:36:52;;;;;;;1.05;0.50;;;;;;;;;;5036735;28;20044;-80